createdAt,value
2023-04-09T00:00:44.858Z,136.07
2023-04-09T00:02:46.308Z,124.97
2023-04-09T00:04:47.792Z,123.80
2023-04-09T00:06:49.692Z,98.88
2023-04-09T00:08:51.298Z,83.97
2023-04-09T00:10:53.369Z,74.60
2023-04-09T00:12:54.825Z,70.32
2023-04-09T00:14:56.521Z,76.47
2023-04-09T00:16:57.984Z,76.43
2023-04-09T00:18:59.496Z,76.65
2023-04-09T00:21:00.995Z,79.68
2023-04-09T00:23:02.392Z,82.55
2023-04-09T00:25:03.907Z,77.45
2023-04-09T00:27:05.418Z,74.00
2023-04-09T00:29:06.883Z,60.63
2023-04-09T00:31:08.363Z,60.72
2023-04-09T00:33:09.817Z,61.00
2023-04-09T00:35:11.224Z,57.65
2023-04-09T00:37:12.609Z,54.38
2023-04-09T00:39:14.090Z,56.28
2023-04-09T00:41:15.819Z,55.97
2023-04-09T00:43:18.028Z,53.88
2023-04-09T00:45:19.457Z,49.03
2023-04-09T00:47:21.352Z,44.85
2023-04-09T00:49:24.838Z,50.35
2023-04-09T00:51:26.761Z,48.25
2023-04-09T00:53:28.424Z,42.60
2023-04-09T00:55:30.248Z,46.30
2023-04-09T00:57:31.614Z,41.92
2023-04-09T00:59:33.010Z,42.78
2023-04-09T01:01:34.656Z,45.13
2023-04-09T01:03:36.543Z,43.05
2023-04-09T01:05:46.852Z,45.45
2023-04-09T01:08:06.893Z,43.58
2023-04-09T01:10:17.110Z,40.78
2023-04-09T01:12:25.653Z,38.08
2023-04-09T01:14:37.164Z,38.08
2023-04-09T01:16:40.719Z,35.55
2023-04-09T01:18:52.795Z,37.20
2023-04-09T01:21:14.885Z,37.97
2023-04-09T01:23:28.882Z,38.35
2023-04-09T01:25:49.236Z,40.83
2023-04-09T01:28:02.618Z,37.38
2023-04-09T01:30:04.672Z,38.35
2023-04-09T01:32:07.128Z,39.97
2023-04-09T01:34:09.302Z,41.08
2023-04-09T01:36:11.059Z,42.30
2023-04-09T01:38:13.800Z,48.35
2023-04-09T01:40:15.653Z,45.67
2023-04-09T01:42:17.768Z,46.30
2023-04-09T01:44:19.816Z,47.15
2023-04-09T01:46:22.027Z,45.83
2023-04-09T01:48:23.701Z,47.13
2023-04-09T01:50:25.287Z,49.13
2023-04-09T01:52:27.103Z,51.42
2023-04-09T01:54:28.479Z,50.75
2023-04-09T01:56:40.316Z,50.90
2023-04-09T01:58:41.727Z,51.80
2023-04-09T02:00:47.004Z,52.78
2023-04-09T02:02:53.776Z,47.63
2023-04-09T02:04:56.478Z,47.55
2023-04-09T02:07:01.449Z,45.13
2023-04-09T02:09:04.121Z,47.28
2023-04-09T02:11:08.636Z,47.55
2023-04-09T02:13:14.070Z,46.72
2023-04-09T02:15:15.811Z,44.92
2023-04-09T02:17:17.518Z,45.80
2023-04-09T02:19:19.019Z,47.75
2023-04-09T02:21:20.625Z,46.25
2023-04-09T02:23:22.165Z,47.42
2023-04-09T02:25:23.939Z,42.72
2023-04-09T02:27:25.314Z,42.15
2023-04-09T02:29:26.743Z,49.30
2023-04-09T02:31:28.246Z,51.70
2023-04-09T02:33:29.760Z,53.67
2023-04-09T02:35:31.335Z,65.63
2023-04-09T02:37:32.729Z,60.30
2023-04-09T02:39:34.241Z,57.58
2023-04-09T02:41:35.923Z,54.95
2023-04-09T02:43:37.412Z,58.50
2023-04-09T02:45:38.864Z,60.05
2023-04-09T02:47:40.279Z,59.75
2023-04-09T02:49:41.835Z,59.45
2023-04-09T02:51:43.236Z,60.42
2023-04-09T02:53:45.619Z,60.85
2023-04-09T02:55:47.281Z,59.10
2023-04-09T02:57:48.706Z,60.53
2023-04-09T02:59:50.118Z,59.05
2023-04-09T03:01:51.634Z,63.13
2023-04-09T03:03:53.252Z,62.88
2023-04-09T03:05:54.819Z,65.80
2023-04-09T03:07:56.250Z,60.53
2023-04-09T03:09:57.722Z,61.22
2023-04-09T03:11:59.260Z,61.17
2023-04-09T03:14:00.804Z,58.83
2023-04-09T03:16:02.331Z,58.13
2023-04-09T03:18:03.893Z,61.28
2023-04-09T03:20:06.381Z,60.58
2023-04-09T03:22:07.799Z,61.53
2023-04-09T03:24:09.215Z,68.13
2023-04-09T03:26:10.704Z,67.90
2023-04-09T03:28:12.150Z,68.80
2023-04-09T03:30:13.595Z,71.63
2023-04-09T03:32:16.398Z,70.10
2023-04-09T03:34:19.278Z,66.65
2023-04-09T03:36:20.765Z,72.97
2023-04-09T03:38:22.219Z,68.57
2023-04-09T03:40:23.748Z,66.20
2023-04-09T03:42:25.317Z,65.60
2023-04-09T03:44:26.811Z,66.72
2023-04-09T03:46:28.268Z,64.53
2023-04-09T03:48:29.781Z,69.95
2023-04-09T03:50:31.195Z,65.90
2023-04-09T03:52:32.604Z,66.40
2023-04-09T03:54:34.060Z,72.07
2023-04-09T03:56:35.487Z,71.97
2023-04-09T03:58:37.391Z,73.57
2023-04-09T04:00:38.813Z,71.30
2023-04-09T04:02:40.614Z,66.97
2023-04-09T04:04:42.251Z,73.88
2023-04-09T04:06:43.649Z,75.90
2023-04-09T04:08:45.094Z,69.43
2023-04-09T04:10:46.559Z,65.85
2023-04-09T04:12:48.078Z,72.10
2023-04-09T04:14:49.531Z,70.88
2023-04-09T04:16:51.076Z,70.65
2023-04-09T04:18:52.594Z,68.05
2023-04-09T04:20:54.180Z,69.55
2023-04-09T04:22:55.654Z,69.88
2023-04-09T04:24:57.064Z,70.50
2023-04-09T04:26:58.488Z,71.50
2023-04-09T04:28:59.910Z,69.45
2023-04-09T04:31:01.302Z,71.93
2023-04-09T04:33:02.797Z,97.20
2023-04-09T04:35:04.327Z,151.35
2023-04-09T04:37:05.840Z,121.40
2023-04-09T04:39:07.253Z,111.97
2023-04-09T04:41:08.681Z,100.15
2023-04-09T04:43:10.060Z,95.85
2023-04-09T04:45:11.475Z,102.93
2023-04-09T04:47:12.930Z,113.68
2023-04-09T04:49:14.314Z,132.48
2023-04-09T04:51:15.710Z,104.13
2023-04-09T04:53:17.129Z,78.80
2023-04-09T04:55:18.558Z,82.50
2023-04-09T04:57:19.948Z,101.97
2023-04-09T04:59:21.471Z,103.18
2023-04-09T05:01:22.908Z,95.63
2023-04-09T05:03:27.025Z,97.57
2023-04-09T05:05:28.997Z,102.13
2023-04-09T05:07:30.556Z,91.28
2023-04-09T05:09:31.933Z,94.65
2023-04-09T05:11:33.331Z,89.35
2023-04-09T05:13:34.772Z,86.20
2023-04-09T05:15:39.734Z,81.93
2023-04-09T05:17:43.984Z,81.57
2023-04-09T05:19:50.412Z,82.32
2023-04-09T05:21:51.836Z,91.18
2023-04-09T05:23:53.297Z,88.00
2023-04-09T05:25:54.691Z,85.53
2023-04-09T05:27:56.410Z,80.95
2023-04-09T05:30:00.697Z,77.45
2023-04-09T05:32:02.519Z,78.40
2023-04-09T05:34:04.268Z,79.15
2023-04-09T05:36:05.897Z,88.25
2023-04-09T05:38:07.355Z,87.22
2023-04-09T05:40:09.040Z,98.55
2023-04-09T05:42:10.635Z,93.88
2023-04-09T05:44:12.239Z,80.18
2023-04-09T05:46:13.790Z,70.88
2023-04-09T05:48:15.197Z,69.25
2023-04-09T05:50:16.920Z,79.75
2023-04-09T05:52:18.412Z,83.25
2023-04-09T05:54:19.839Z,76.18
2023-04-09T05:56:24.110Z,65.40
2023-04-09T05:58:25.995Z,64.38
2023-04-09T06:00:27.388Z,82.22
2023-04-09T06:02:28.891Z,78.35
2023-04-09T06:04:30.405Z,78.72
2023-04-09T06:06:31.931Z,69.43
2023-04-09T06:08:33.354Z,65.28
2023-04-09T06:10:34.781Z,79.15
2023-04-09T06:12:36.336Z,74.45
2023-04-09T06:14:37.800Z,68.20
2023-04-09T06:16:39.208Z,61.20
2023-04-09T06:18:42.468Z,73.70
2023-04-09T06:20:43.914Z,67.25
2023-04-09T06:22:45.412Z,62.90
2023-04-09T06:24:46.812Z,59.22
2023-04-09T06:26:48.243Z,63.60
2023-04-09T06:28:49.625Z,59.50
2023-04-09T06:30:51.256Z,59.53
2023-04-09T06:32:55.008Z,63.10
2023-04-09T06:34:56.866Z,59.58
2023-04-09T06:36:58.292Z,59.13
2023-04-09T06:38:59.701Z,67.78
2023-04-09T06:41:01.206Z,69.50
2023-04-09T06:43:02.620Z,81.82
2023-04-09T06:45:08.568Z,78.53
2023-04-09T06:47:10.208Z,58.92
2023-04-09T06:49:11.695Z,47.90
2023-04-09T06:51:13.179Z,72.70
2023-04-09T06:53:15.203Z,54.83
2023-04-09T06:55:16.654Z,61.28
2023-04-09T06:57:18.090Z,55.58
2023-04-09T06:59:19.611Z,51.97
2023-04-09T07:01:21.292Z,61.05
2023-04-09T07:03:23.190Z,49.03
2023-04-09T07:05:24.697Z,57.58
2023-04-09T07:07:26.291Z,95.15
2023-04-09T07:09:27.776Z,238.27
2023-04-09T07:11:29.208Z,41.00
2023-04-09T07:13:31.321Z,36.88
2023-04-09T07:15:33.082Z,48.15
2023-04-09T07:17:35.126Z,43.10
2023-04-09T07:19:36.536Z,40.42
2023-04-09T07:21:38.129Z,40.90
2023-04-09T07:23:39.550Z,40.30
2023-04-09T07:25:40.980Z,41.10
2023-04-09T07:27:45.376Z,38.55
2023-04-09T07:29:46.825Z,38.58
2023-04-09T07:31:48.301Z,43.20
2023-04-09T07:33:49.683Z,66.80
2023-04-09T07:35:51.300Z,50.67
2023-04-09T07:37:52.817Z,40.85
2023-04-09T07:39:54.303Z,40.03
2023-04-09T07:41:57.494Z,41.22
2023-04-09T07:43:59.331Z,41.40
2023-04-09T07:46:00.754Z,45.17
2023-04-09T07:48:02.259Z,42.28
2023-04-09T07:50:03.941Z,42.55
2023-04-09T07:52:06.151Z,42.72
2023-04-09T07:54:09.035Z,43.38
2023-04-09T07:56:10.482Z,48.83
2023-04-09T07:58:11.983Z,48.78
2023-04-09T08:00:13.713Z,44.00
2023-04-09T08:02:15.679Z,45.83
2023-04-09T08:04:17.457Z,45.00
2023-04-09T08:06:19.733Z,45.75
2023-04-09T08:08:21.795Z,45.75
2023-04-09T08:10:23.289Z,48.97
2023-04-09T08:12:24.767Z,48.28
2023-04-09T08:14:26.375Z,48.63
2023-04-09T08:16:39.592Z,49.45
2023-04-09T08:18:41.401Z,53.97
2023-04-09T08:20:45.385Z,59.35
2023-04-09T08:22:47.014Z,70.55
2023-04-09T08:24:52.578Z,42.17
2023-04-09T08:26:54.540Z,40.30
2023-04-09T08:28:59.567Z,41.13
2023-04-09T08:31:01.179Z,38.45
2023-04-09T08:33:02.773Z,36.53
2023-04-09T08:35:04.314Z,45.15
2023-04-09T08:37:06.416Z,38.92
2023-04-09T08:39:08.074Z,31.65
2023-04-09T08:41:17.106Z,28.35
2023-04-09T08:43:19.248Z,29.17
2023-04-09T08:45:20.626Z,28.85
2023-04-09T08:47:22.739Z,25.60
2023-04-09T08:49:24.159Z,24.25
2023-04-09T08:51:27.021Z,24.42
2023-04-09T08:53:28.602Z,26.48
2023-04-09T08:55:31.302Z,23.33
2023-04-09T08:57:37.160Z,23.40
2023-04-09T08:59:38.701Z,26.08
2023-04-09T09:01:40.208Z,25.63
2023-04-09T09:03:53.175Z,21.42
2023-04-09T09:05:54.657Z,21.80
2023-04-09T09:07:58.201Z,23.92
2023-04-09T09:10:00.662Z,26.67
2023-04-09T09:12:02.454Z,21.02
2023-04-09T09:14:05.536Z,20.60
2023-04-09T09:16:14.521Z,20.73
2023-04-09T09:18:16.992Z,23.30
2023-04-09T09:20:21.710Z,21.17
2023-04-09T09:22:23.228Z,20.70
2023-04-09T09:24:24.682Z,19.83
2023-04-09T09:26:30.132Z,18.10
2023-04-09T09:28:37.810Z,19.33
2023-04-09T09:30:40.153Z,16.63
2023-04-09T09:32:42.609Z,13.32
2023-04-09T09:34:57.310Z,14.85
2023-04-09T09:36:58.716Z,16.95
2023-04-09T09:39:03.859Z,15.38
2023-04-09T09:41:16.840Z,15.02
2023-04-09T09:43:18.233Z,16.33
2023-04-09T09:45:20.515Z,12.20
2023-04-09T09:47:22.748Z,12.05
2023-04-09T09:49:24.180Z,12.95
2023-04-09T09:51:27.751Z,12.20
2023-04-09T09:53:30.561Z,11.93
2023-04-09T09:55:33.176Z,25.90
2023-04-09T09:57:39.299Z,13.82
2023-04-09T09:59:41.685Z,16.23
2023-04-09T10:01:43.884Z,12.13
2023-04-09T10:03:46.046Z,12.13
2023-04-09T10:05:48.627Z,12.38
2023-04-09T10:07:50.052Z,12.27
2023-04-09T10:09:52.987Z,11.57
2023-04-09T10:11:56.011Z,10.98
2023-04-09T10:13:58.930Z,11.50
2023-04-09T10:16:00.753Z,11.43
2023-04-09T10:18:02.352Z,11.95
2023-04-09T10:20:11.159Z,12.45
2023-04-09T10:22:13.828Z,11.95
2023-04-09T10:24:16.077Z,12.07
2023-04-09T10:26:20.420Z,12.38
2023-04-09T10:28:23.101Z,12.15
2023-04-09T10:30:36.742Z,11.82
2023-04-09T10:32:38.430Z,11.35
2023-04-09T10:34:41.242Z,11.95
2023-04-09T10:36:43.810Z,11.07
2023-04-09T10:38:45.758Z,11.52
2023-04-09T10:40:47.744Z,11.20
2023-04-09T10:42:49.328Z,11.65
2023-04-09T10:45:07.593Z,12.57
2023-04-09T10:47:10.010Z,11.68
2023-04-09T10:49:12.255Z,11.52
2023-04-09T10:51:18.977Z,11.68
2023-04-09T10:53:24.179Z,12.07
2023-04-09T10:55:36.506Z,11.70
2023-04-09T10:57:38.004Z,12.40
2023-04-09T10:59:45.149Z,11.95
2023-04-09T11:01:53.772Z,13.63
2023-04-09T11:04:10.617Z,12.60
2023-04-09T11:06:14.803Z,13.02
2023-04-09T11:08:16.855Z,13.00
2023-04-09T11:10:18.864Z,12.60
2023-04-09T11:12:20.235Z,12.98
2023-04-09T11:14:21.637Z,13.20
2023-04-09T11:16:26.053Z,13.05
2023-04-09T11:18:30.332Z,13.18
2023-04-09T11:20:33.339Z,12.88
2023-04-09T11:22:34.771Z,12.45
2023-04-09T11:24:42.456Z,13.30
2023-04-09T11:26:44.010Z,13.98
2023-04-09T11:28:45.956Z,11.98
2023-04-09T11:30:47.798Z,11.95
2023-04-09T11:32:49.762Z,11.23
2023-04-09T11:34:52.716Z,12.05
2023-04-09T11:36:54.203Z,12.82
2023-04-09T11:38:56.032Z,11.98
2023-04-09T11:40:57.677Z,25.13
2023-04-09T11:42:59.195Z,12.55
2023-04-09T11:45:01.186Z,11.45
2023-04-09T11:47:02.732Z,10.85
2023-04-09T11:49:04.387Z,10.38
2023-04-09T11:51:06.517Z,10.40
2023-04-09T11:53:28.188Z,10.93
2023-04-09T11:55:29.804Z,10.52
2023-04-09T11:57:41.193Z,10.35
2023-04-09T11:59:42.881Z,9.73
2023-04-09T12:01:48.640Z,12.63
2023-04-09T12:03:54.608Z,12.98
2023-04-09T12:05:56.180Z,11.10
2023-04-09T12:07:59.048Z,12.02
2023-04-09T12:10:04.379Z,10.95
2023-04-09T12:12:08.980Z,9.13
2023-04-09T12:14:13.978Z,11.27
2023-04-09T12:16:19.262Z,11.80
2023-04-09T12:18:21.586Z,9.52
2023-04-09T12:20:26.515Z,10.98
2023-04-09T12:22:28.136Z,9.48
2023-04-09T12:24:29.541Z,9.45
2023-04-09T12:26:31.628Z,9.52
2023-04-09T12:28:33.149Z,10.40
2023-04-09T12:30:35.041Z,10.05
2023-04-09T12:32:36.547Z,8.35
2023-04-09T12:34:38.046Z,9.98
2023-04-09T12:36:41.590Z,10.38
2023-04-09T12:38:43.068Z,9.75
2023-04-09T12:40:44.883Z,9.07
2023-04-09T12:42:49.079Z,9.15
2023-04-09T12:44:50.673Z,9.05
2023-04-09T12:46:52.074Z,14.68
2023-04-09T12:48:53.623Z,10.90
2023-04-09T12:50:55.168Z,10.20
2023-04-09T12:52:56.632Z,15.63
2023-04-09T12:54:58.227Z,10.05
2023-04-09T12:56:59.644Z,11.38
2023-04-09T12:59:01.730Z,13.30
2023-04-09T13:01:04.349Z,15.25
2023-04-09T13:03:05.933Z,13.80
2023-04-09T13:05:07.634Z,9.40
2023-04-09T13:07:09.261Z,10.15
2023-04-09T13:09:10.722Z,9.15
2023-04-09T13:11:12.089Z,9.20
2023-04-09T13:13:13.572Z,9.73
2023-04-09T13:15:14.958Z,8.95
2023-04-09T13:17:16.515Z,8.82
2023-04-09T13:19:18.906Z,9.13
2023-04-09T13:21:20.548Z,8.75
2023-04-09T13:23:21.929Z,9.05
2023-04-09T13:25:23.458Z,8.88
2023-04-09T13:27:25.041Z,9.13
2023-04-09T13:29:29.193Z,9.40
2023-04-09T13:31:30.694Z,9.70
2023-04-09T13:33:32.137Z,8.90
2023-04-09T13:35:33.638Z,9.65
2023-04-09T13:37:35.082Z,9.60
2023-04-09T13:39:36.506Z,9.73
2023-04-09T13:41:38.094Z,10.20
2023-04-09T13:43:39.562Z,10.13
2023-04-09T13:45:41.039Z,10.75
2023-04-09T13:47:43.157Z,9.52
2023-04-09T13:49:44.671Z,10.63
2023-04-09T13:51:46.231Z,11.52
2023-04-09T13:53:48.315Z,10.68
2023-04-09T13:55:49.706Z,11.43
2023-04-09T13:57:51.157Z,10.80
2023-04-09T13:59:52.686Z,11.30
2023-04-09T14:01:54.177Z,12.50
2023-04-09T14:03:56.674Z,11.00
2023-04-09T14:05:58.602Z,10.55
2023-04-09T14:08:00.152Z,12.93
2023-04-09T14:10:01.963Z,12.02
2023-04-09T14:12:03.577Z,11.52
2023-04-09T14:14:05.021Z,10.90
2023-04-09T14:16:07.090Z,12.23
2023-04-09T14:18:08.660Z,12.10
2023-04-09T14:20:10.378Z,12.27
2023-04-09T14:22:12.520Z,16.95
2023-04-09T14:24:13.929Z,22.05
2023-04-09T14:26:16.350Z,18.60
2023-04-09T14:28:17.847Z,16.73
2023-04-09T14:30:19.325Z,16.80
2023-04-09T14:32:20.809Z,15.55
2023-04-09T14:34:22.335Z,14.50
2023-04-09T14:36:24.439Z,14.40
2023-04-09T14:38:26.000Z,19.15
2023-04-09T14:40:27.451Z,16.30
2023-04-09T14:42:28.941Z,17.90
2023-04-09T14:44:31.682Z,31.42
2023-04-09T14:46:33.146Z,16.25
2023-04-09T14:48:34.656Z,13.93
2023-04-09T14:50:36.732Z,14.55
2023-04-09T14:52:38.256Z,16.77
2023-04-09T14:54:39.775Z,14.23
2023-04-09T14:56:41.643Z,16.70
2023-04-09T14:58:43.059Z,14.95
2023-04-09T15:00:45.134Z,13.75
2023-04-09T15:02:47.708Z,14.82
2023-04-09T15:04:49.764Z,14.77
2023-04-09T15:06:51.535Z,15.35
2023-04-09T15:08:53.118Z,15.85
2023-04-09T15:10:54.751Z,17.98
2023-04-09T15:12:56.252Z,16.75
2023-04-09T15:14:57.805Z,15.15
2023-04-09T15:16:59.211Z,16.15
2023-04-09T15:19:02.666Z,14.48
2023-04-09T15:21:04.228Z,12.02
2023-04-09T15:23:05.843Z,12.90
2023-04-09T15:25:07.451Z,12.82
2023-04-09T15:27:08.972Z,13.20
2023-04-09T15:29:10.358Z,30.50
2023-04-09T15:31:12.085Z,15.95
2023-04-09T15:33:13.567Z,17.48
2023-04-09T15:35:19.089Z,15.32
2023-04-09T15:37:20.569Z,16.52
2023-04-09T15:39:24.470Z,24.13
2023-04-09T15:41:26.961Z,18.73
2023-04-09T15:43:28.384Z,18.55
2023-04-09T15:45:29.807Z,27.02
2023-04-09T15:47:33.270Z,20.60
2023-04-09T15:49:35.656Z,20.10
2023-04-09T15:51:37.129Z,20.48
2023-04-09T15:53:38.560Z,28.27
2023-04-09T15:55:40.038Z,44.45
2023-04-09T15:57:46.579Z,45.20
2023-04-09T15:59:48.513Z,36.97
2023-04-09T16:01:50.092Z,21.48
2023-04-09T16:03:52.457Z,39.75
2023-04-09T16:05:53.982Z,63.30
2023-04-09T16:07:57.550Z,38.22
2023-04-09T16:10:01.228Z,28.08
2023-04-09T16:12:02.860Z,24.73
2023-04-09T16:14:04.605Z,23.50
2023-04-09T16:16:07.009Z,18.88
2023-04-09T16:18:10.240Z,18.42
2023-04-09T16:20:11.932Z,17.77
2023-04-09T16:22:13.422Z,16.70
2023-04-09T16:24:14.976Z,16.63
2023-04-09T16:26:16.517Z,18.02
2023-04-09T16:28:19.451Z,28.35
2023-04-09T16:30:21.185Z,39.75
2023-04-09T16:32:22.635Z,39.58
2023-04-09T16:34:24.915Z,49.00
2023-04-09T16:36:27.100Z,44.20
2023-04-09T16:38:29.783Z,42.40
2023-04-09T16:40:31.243Z,51.40
2023-04-09T16:42:32.874Z,59.88
2023-04-09T16:44:34.385Z,73.60
2023-04-09T16:46:36.090Z,90.25
2023-04-09T16:48:41.665Z,101.50
2023-04-09T16:50:43.136Z,64.43
2023-04-09T16:52:44.835Z,64.20
2023-04-09T16:54:46.259Z,101.72
2023-04-09T16:56:48.786Z,59.58
2023-04-09T16:58:50.321Z,52.92
2023-04-09T17:00:52.308Z,42.00
2023-04-09T17:02:55.622Z,26.60
2023-04-09T17:04:57.677Z,26.08
2023-04-09T17:06:59.843Z,25.15
2023-04-09T17:09:01.469Z,26.60
2023-04-09T17:11:03.141Z,25.60
2023-04-09T17:13:04.604Z,25.08
2023-04-09T17:15:06.490Z,25.42
2023-04-09T17:17:08.348Z,32.15
2023-04-09T17:19:10.617Z,30.48
2023-04-09T17:21:12.460Z,42.63
2023-04-09T17:23:14.727Z,58.08
2023-04-09T17:25:16.420Z,160.63
2023-04-09T17:27:19.593Z,55.75
2023-04-09T17:29:21.413Z,40.70
2023-04-09T17:31:24.310Z,52.67
2023-04-09T17:33:26.429Z,118.80
2023-04-09T17:35:27.863Z,55.42
2023-04-09T17:37:29.342Z,102.90
2023-04-09T17:39:31.258Z,149.23
2023-04-09T17:41:32.660Z,69.15
2023-04-09T17:43:34.066Z,79.82
2023-04-09T17:45:35.709Z,83.22
2023-04-09T17:47:37.242Z,76.30
2023-04-09T17:49:39.320Z,91.93
2023-04-09T17:51:40.799Z,50.95
2023-04-09T17:53:42.326Z,83.53
2023-04-09T17:55:48.534Z,40.20
2023-04-09T17:57:50.114Z,35.20
2023-04-09T17:59:52.273Z,33.70
2023-04-09T18:01:55.173Z,35.05
2023-04-09T18:03:57.063Z,37.47
2023-04-09T18:06:00.637Z,43.65
2023-04-09T18:08:05.092Z,52.50
2023-04-09T18:10:06.901Z,59.20
2023-04-09T18:12:08.459Z,50.35
2023-04-09T18:14:09.864Z,45.30
2023-04-09T18:16:12.509Z,44.58
2023-04-09T18:18:14.144Z,38.22
2023-04-09T18:20:15.835Z,37.78
2023-04-09T18:22:17.210Z,35.08
2023-04-09T18:24:18.686Z,34.42
2023-04-09T18:26:20.094Z,32.92
2023-04-09T18:28:21.788Z,38.25
2023-04-09T18:30:23.255Z,40.85
2023-04-09T18:32:25.419Z,56.28
2023-04-09T18:34:27.063Z,71.20
2023-04-09T18:36:28.981Z,85.85
2023-04-09T18:38:30.451Z,63.63
2023-04-09T18:40:31.906Z,50.35
2023-04-09T18:42:33.369Z,50.67
2023-04-09T18:44:37.540Z,47.15
2023-04-09T18:46:39.032Z,40.47
2023-04-09T18:48:40.547Z,39.50
2023-04-09T18:50:41.939Z,36.80
2023-04-09T18:52:43.352Z,41.35
2023-04-09T18:54:44.736Z,38.00
2023-04-09T18:56:46.669Z,36.08
2023-04-09T18:58:48.618Z,41.65
2023-04-09T19:00:53.017Z,40.78
2023-04-09T19:02:54.727Z,40.22
2023-04-09T19:04:56.437Z,45.53
2023-04-09T19:06:57.882Z,50.83
2023-04-09T19:08:59.309Z,115.53
2023-04-09T19:11:00.757Z,98.38
2023-04-09T19:13:02.768Z,97.60
2023-04-09T19:15:04.900Z,50.63
2023-04-09T19:17:06.597Z,53.42
2023-04-09T19:19:08.026Z,62.10
2023-04-09T19:21:09.537Z,46.75
2023-04-09T19:23:11.037Z,47.25
2023-04-09T19:25:12.502Z,57.00
2023-04-09T19:27:14.124Z,82.38
2023-04-09T19:29:15.533Z,77.68
2023-04-09T19:31:17.192Z,65.07
2023-04-09T19:33:20.286Z,76.20
2023-04-09T19:35:21.750Z,71.18
2023-04-09T19:37:27.486Z,72.53
2023-04-09T19:39:29.016Z,88.90
2023-04-09T19:41:30.670Z,82.22
2023-04-09T19:43:32.120Z,78.95
2023-04-09T19:45:33.545Z,72.00
2023-04-09T19:47:35.068Z,76.53
2023-04-09T19:49:37.222Z,66.45
2023-04-09T19:51:38.613Z,62.20
2023-04-09T19:53:40.146Z,59.55
2023-04-09T19:55:41.557Z,55.47
2023-04-09T19:57:44.296Z,55.53
2023-04-09T19:59:47.921Z,53.20
2023-04-09T20:01:51.175Z,58.42
2023-04-09T20:03:53.060Z,61.45
2023-04-09T20:05:54.676Z,65.05
2023-04-09T20:07:56.242Z,70.75
2023-04-09T20:09:57.733Z,68.03
2023-04-09T20:12:04.391Z,66.93
2023-04-09T20:14:06.055Z,66.32
2023-04-09T20:16:07.575Z,57.70
2023-04-09T20:18:09.165Z,55.47
2023-04-09T20:20:11.807Z,53.88
2023-04-09T20:22:13.446Z,49.10
2023-04-09T20:24:17.872Z,53.45
2023-04-09T20:26:19.330Z,51.65
2023-04-09T20:28:21.103Z,52.58
2023-04-09T20:30:22.791Z,54.17
2023-04-09T20:32:24.366Z,57.72
2023-04-09T20:34:28.562Z,60.22
2023-04-09T20:36:30.355Z,53.50
2023-04-09T20:38:31.804Z,55.50
2023-04-09T20:40:35.504Z,56.78
2023-04-09T20:42:36.946Z,59.15
2023-04-09T20:44:38.424Z,60.22
2023-04-09T20:46:39.873Z,54.88
2023-04-09T20:48:41.474Z,52.30
2023-04-09T20:50:42.908Z,52.38
2023-04-09T20:52:44.700Z,49.85
2023-04-09T20:54:46.155Z,49.47
2023-04-09T20:56:47.632Z,51.97
2023-04-09T20:58:49.059Z,53.22
2023-04-09T21:00:50.808Z,54.20
2023-04-09T21:02:52.415Z,51.97
2023-04-09T21:04:53.938Z,53.00
2023-04-09T21:06:55.599Z,55.58
2023-04-09T21:08:58.663Z,58.45
2023-04-09T21:11:02.141Z,58.63
2023-04-09T21:13:03.536Z,57.85
2023-04-09T21:15:05.349Z,53.88
2023-04-09T21:17:06.946Z,50.47
2023-04-09T21:19:08.376Z,56.83
2023-04-09T21:21:09.895Z,58.33
2023-04-09T21:23:11.334Z,57.63
2023-04-09T21:25:15.097Z,56.45
2023-04-09T21:27:16.845Z,52.85
2023-04-09T21:29:18.862Z,52.38
2023-04-09T21:31:21.139Z,57.38
2023-04-09T21:33:22.549Z,64.38
2023-04-09T21:35:24.062Z,64.68
2023-04-09T21:37:26.728Z,60.05
2023-04-09T21:39:28.761Z,58.42
2023-04-09T21:41:30.162Z,56.08
2023-04-09T21:43:31.581Z,61.63
2023-04-09T21:45:33.056Z,62.65
2023-04-09T21:47:34.483Z,61.85
2023-04-09T21:49:39.292Z,63.50
2023-04-09T21:51:41.089Z,62.45
2023-04-09T21:53:42.508Z,59.70
2023-04-09T21:55:43.909Z,62.17
2023-04-09T21:57:45.700Z,64.72
2023-04-09T21:59:47.086Z,72.63
2023-04-09T22:01:50.119Z,61.97
2023-04-09T22:03:51.725Z,62.72
2023-04-09T22:05:53.141Z,66.18
2023-04-09T22:07:55.471Z,64.18
2023-04-09T22:09:57.364Z,64.43
2023-04-09T22:11:59.569Z,62.65
2023-04-09T22:14:01.457Z,60.95
2023-04-09T22:16:02.957Z,66.65
2023-04-09T22:18:04.521Z,69.28
2023-04-09T22:20:06.649Z,66.20
2023-04-09T22:22:12.172Z,71.80
2023-04-09T22:24:15.471Z,70.82
2023-04-09T22:26:16.956Z,72.22
2023-04-09T22:28:18.712Z,76.03
2023-04-09T22:30:21.954Z,78.82
2023-04-09T22:32:23.466Z,72.15
2023-04-09T22:34:24.941Z,71.55
2023-04-09T22:36:27.320Z,76.88
2023-04-09T22:38:28.896Z,79.45
2023-04-09T22:40:30.292Z,76.90
2023-04-09T22:42:32.307Z,79.20
2023-04-09T22:44:33.778Z,73.28
2023-04-09T22:46:35.521Z,77.50
2023-04-09T22:48:44.097Z,75.10
2023-04-09T22:50:46.898Z,71.07
2023-04-09T22:52:48.556Z,73.68
2023-04-09T22:54:49.999Z,76.50
2023-04-09T22:56:51.743Z,75.15
2023-04-09T22:58:53.339Z,76.80
2023-04-09T23:00:54.822Z,79.55
2023-04-09T23:02:56.388Z,85.28
2023-04-09T23:04:58.083Z,85.10
2023-04-09T23:06:59.551Z,85.40
2023-04-09T23:09:01.045Z,80.15
2023-04-09T23:11:02.500Z,81.45
2023-04-09T23:13:03.975Z,80.32
2023-04-09T23:15:05.678Z,78.95
2023-04-09T23:17:07.161Z,80.65
2023-04-09T23:19:08.601Z,85.30
2023-04-09T23:21:10.669Z,87.88
2023-04-09T23:23:12.142Z,85.25
2023-04-09T23:25:16.720Z,81.32
2023-04-09T23:27:18.149Z,81.50
2023-04-09T23:29:19.532Z,81.97
2023-04-09T23:31:21.062Z,82.90
2023-04-09T23:33:22.493Z,81.07
2023-04-09T23:35:24.004Z,79.53
2023-04-09T23:37:25.908Z,80.88
2023-04-09T23:39:27.376Z,79.75
2023-04-09T23:41:28.812Z,82.13
2023-04-09T23:43:30.224Z,82.22
2023-04-09T23:45:31.765Z,84.03
2023-04-09T23:47:34.266Z,81.22
2023-04-09T23:49:35.704Z,80.63
2023-04-09T23:51:37.094Z,82.20
2023-04-09T23:53:38.488Z,80.72
2023-04-09T23:55:41.494Z,81.22
2023-04-09T23:57:43.667Z,82.72
2023-04-09T23:59:45.065Z,80.88
